createdAt,value
2024-01-22T00:02:23.820Z,100682.44
2024-01-22T00:04:50.634Z,100661.69
2024-01-22T00:07:17.252Z,100661.41
2024-01-22T00:09:43.963Z,100664.44
2024-01-22T00:12:11.155Z,100683.72
2024-01-22T00:14:38.525Z,100660.47
2024-01-22T00:17:05.442Z,100665.75
2024-01-22T00:19:35.275Z,100695.28
2024-01-22T00:22:02.182Z,100648.72
2024-01-22T00:24:28.853Z,100647.00
2024-01-22T00:26:55.526Z,100643.06
2024-01-22T00:29:22.198Z,100638.16
2024-01-22T00:31:48.989Z,100653.31
2024-01-22T00:34:15.785Z,100653.34
2024-01-22T00:36:42.675Z,100626.09
2024-01-22T00:39:09.375Z,100672.06
2024-01-22T00:41:36.179Z,100666.22
2024-01-22T00:44:03.015Z,100624.31
2024-01-22T00:46:30.187Z,100613.19
2024-01-22T00:48:57.481Z,100648.78
2024-01-22T00:51:24.747Z,100576.09
2024-01-22T00:53:51.541Z,100618.88
2024-01-22T00:56:18.401Z,100601.97
2024-01-22T00:58:45.191Z,100625.19
2024-01-22T01:01:12.234Z,100588.19
2024-01-22T01:03:39.083Z,100623.66
2024-01-22T01:06:06.288Z,100595.09
2024-01-22T01:08:32.938Z,100627.34
2024-01-22T01:11:03.084Z,100588.03
2024-01-22T01:13:29.745Z,100585.38
2024-01-22T01:15:56.599Z,100603.50
2024-01-22T01:18:23.356Z,100631.78
2024-01-22T01:20:50.211Z,100601.97
2024-01-22T01:23:16.996Z,100594.13
2024-01-22T01:25:43.873Z,100595.53
2024-01-22T01:28:10.782Z,100535.25
2024-01-22T01:30:37.656Z,100564.81
2024-01-22T01:33:04.580Z,100552.25
2024-01-22T01:35:31.214Z,100575.44
2024-01-22T01:37:57.938Z,100563.09
2024-01-22T01:40:25.410Z,100534.22
2024-01-22T01:42:52.605Z,100545.16
2024-01-22T01:45:19.445Z,100490.41
2024-01-22T01:47:52.100Z,100477.56
2024-01-22T01:50:19.262Z,100469.81
2024-01-22T01:52:46.635Z,100516.59
2024-01-22T01:55:13.921Z,100490.91
2024-01-22T01:57:42.677Z,100509.56
2024-01-22T02:00:14.082Z,100522.38
2024-01-22T02:02:42.207Z,100462.09
2024-01-22T02:05:10.002Z,100483.19
2024-01-22T02:07:38.083Z,100454.41
2024-01-22T02:10:05.266Z,100487.22
2024-01-22T02:12:31.889Z,100418.41
2024-01-22T02:14:58.640Z,100468.50
2024-01-22T02:17:25.379Z,100482.81
2024-01-22T02:19:52.480Z,100459.78
2024-01-22T02:22:19.188Z,100400.31
2024-01-22T02:24:46.004Z,100446.84
2024-01-22T02:27:12.807Z,100390.69
2024-01-22T02:29:39.607Z,100395.41
2024-01-22T02:32:06.881Z,100409.16
2024-01-22T02:34:33.781Z,100405.97
2024-01-22T02:37:03.267Z,100398.91
2024-01-22T02:39:31.040Z,100403.25
2024-01-22T02:41:57.901Z,100367.38
2024-01-22T02:44:24.607Z,100377.97
2024-01-22T02:46:51.440Z,100372.97
2024-01-22T02:49:19.246Z,100382.06
2024-01-22T02:51:45.982Z,100371.03
2024-01-22T02:54:15.917Z,100331.13
2024-01-22T02:56:42.713Z,100355.91
2024-01-22T02:59:09.501Z,100333.38
2024-01-22T03:01:36.361Z,100347.66
2024-01-22T03:04:03.255Z,100323.56
2024-01-22T03:06:30.346Z,100307.59
2024-01-22T03:08:57.125Z,100334.72
2024-01-22T03:11:24.383Z,100332.09
2024-01-22T03:13:51.003Z,100322.47
2024-01-22T03:16:17.801Z,100298.31
2024-01-22T03:18:44.684Z,100327.13
2024-01-22T03:21:11.919Z,100304.19
2024-01-22T03:23:39.020Z,100304.03
2024-01-22T03:26:05.784Z,100305.22
2024-01-22T03:28:32.599Z,100304.56
2024-01-22T03:31:14.599Z,100282.75
2024-01-22T03:33:41.368Z,100303.94
2024-01-22T03:36:08.349Z,100300.72
2024-01-22T03:38:34.964Z,100287.53
2024-01-22T03:41:02.006Z,100284.63
2024-01-22T03:43:28.721Z,100266.19
2024-01-22T03:45:57.921Z,100272.91
2024-01-22T03:48:24.804Z,100249.63
2024-01-22T03:50:54.735Z,100279.78
2024-01-22T03:53:22.003Z,100255.31
2024-01-22T03:55:48.809Z,100265.06
2024-01-22T03:58:15.550Z,100277.41
2024-01-22T04:00:42.295Z,100239.50
2024-01-22T04:03:09.867Z,100246.75
2024-01-22T04:05:36.589Z,100259.38
2024-01-22T04:08:03.413Z,100236.75
2024-01-22T04:10:30.226Z,100282.03
2024-01-22T04:12:57.204Z,100248.09
2024-01-22T04:15:24.626Z,100244.63
2024-01-22T04:17:51.630Z,100252.22
2024-01-22T04:20:18.678Z,100253.41
2024-01-22T04:22:45.430Z,100244.00
2024-01-22T04:25:12.798Z,100251.34
2024-01-22T04:27:39.435Z,100267.94
2024-01-22T04:30:07.209Z,100259.31
2024-01-22T04:32:34.045Z,100245.41
2024-01-22T04:35:02.861Z,100255.31
2024-01-22T04:37:29.698Z,100231.22
2024-01-22T04:39:58.209Z,100268.91
2024-01-22T04:42:25.038Z,100295.56
2024-01-22T04:44:51.764Z,100286.16
2024-01-22T04:47:20.003Z,100246.97
2024-01-22T04:49:46.610Z,100289.81
2024-01-22T04:52:14.126Z,100270.06
2024-01-22T04:54:41.002Z,100283.50
2024-01-22T04:57:08.385Z,100228.78
2024-01-22T04:59:35.251Z,100256.75
2024-01-22T05:02:02.032Z,100265.94
2024-01-22T05:04:28.845Z,100264.09
2024-01-22T05:06:55.677Z,100240.56
2024-01-22T05:09:22.445Z,100289.28
2024-01-22T05:11:50.241Z,100247.56
2024-01-22T05:14:17.110Z,100272.16
2024-01-22T05:16:43.872Z,100248.53
2024-01-22T05:19:10.882Z,100256.63
2024-01-22T05:21:37.659Z,100295.41
2024-01-22T05:24:04.606Z,100280.34
2024-01-22T05:26:31.466Z,100266.38
2024-01-22T05:28:58.823Z,100231.94
2024-01-22T05:31:25.618Z,100282.31
2024-01-22T05:33:52.347Z,100260.59
2024-01-22T05:36:19.307Z,100265.53
2024-01-22T05:38:46.097Z,100277.31
2024-01-22T05:41:13.335Z,100309.75
2024-01-22T05:43:40.106Z,100269.13
2024-01-22T05:46:08.037Z,100293.47
2024-01-22T05:48:35.149Z,100329.94
2024-01-22T05:51:02.642Z,100279.31
2024-01-22T05:53:29.688Z,100274.38
2024-01-22T05:55:56.407Z,100319.47
2024-01-22T05:58:23.939Z,100311.53
2024-01-22T06:00:50.940Z,100327.28
2024-01-22T06:03:17.700Z,100295.31
2024-01-22T06:05:58.902Z,100325.72
2024-01-22T06:08:33.843Z,100274.47
2024-01-22T06:11:06.114Z,100326.69
2024-01-22T06:13:53.132Z,100289.75
2024-01-22T06:16:27.730Z,100324.19
2024-01-22T06:18:54.590Z,100326.34
2024-01-22T06:21:27.426Z,100344.22
2024-01-22T06:24:01.834Z,100288.34
2024-01-22T06:26:31.754Z,100330.34
2024-01-22T06:29:00.074Z,100276.75
2024-01-22T06:31:27.022Z,100325.81
2024-01-22T06:33:53.849Z,100307.22
2024-01-22T06:36:20.818Z,100322.66
2024-01-22T06:38:47.651Z,100325.94
2024-01-22T06:41:16.173Z,100278.03
2024-01-22T06:43:42.922Z,100286.72
2024-01-22T06:46:10.511Z,100319.66
2024-01-22T06:48:37.493Z,100286.91
2024-01-22T06:51:04.548Z,100284.84
2024-01-22T06:53:31.324Z,100282.56
2024-01-22T06:55:58.335Z,100321.50
2024-01-22T06:58:25.081Z,100292.56
2024-01-22T07:00:52.932Z,100317.28
2024-01-22T07:03:22.296Z,100341.91
2024-01-22T07:05:52.684Z,100354.00
2024-01-22T07:08:20.161Z,100344.53
2024-01-22T07:10:47.299Z,100318.72
2024-01-22T07:13:15.005Z,100307.63
2024-01-22T07:18:55.061Z,100383.34
2024-01-22T07:21:25.088Z,100336.34
2024-01-22T07:23:51.883Z,100330.53
2024-01-22T07:26:18.772Z,100357.19
2024-01-22T07:28:45.618Z,100371.56
2024-01-22T07:31:13.233Z,100390.81
2024-01-22T07:33:40.190Z,100363.06
2024-01-22T07:36:07.503Z,100375.47
2024-01-22T07:38:34.713Z,100383.75
2024-01-22T07:43:52.972Z,100445.38
2024-01-22T07:46:20.782Z,100447.09
2024-01-22T07:48:48.132Z,100459.28
2024-01-22T07:51:18.960Z,100457.09
2024-01-22T07:53:47.231Z,100464.41
2024-01-22T07:56:15.383Z,100470.53
2024-01-22T07:58:43.462Z,100472.44
2024-01-22T08:01:11.064Z,100483.38
2024-01-22T08:03:39.698Z,100484.53
2024-01-22T08:06:08.253Z,100503.50
2024-01-22T08:08:35.583Z,100502.31
2024-01-22T08:11:04.111Z,100503.19
2024-01-22T08:13:31.374Z,100510.91
2024-01-22T08:15:58.779Z,100513.44
2024-01-22T08:18:26.192Z,100489.41
2024-01-22T08:20:54.572Z,100545.09
2024-01-22T08:23:21.546Z,100541.81
2024-01-22T08:25:48.187Z,100534.94
2024-01-22T08:28:14.892Z,100529.22
2024-01-22T08:30:41.907Z,100540.66
2024-01-22T08:33:08.851Z,100537.16
2024-01-22T08:35:36.296Z,100544.38
2024-01-22T08:38:03.790Z,100547.03
2024-01-22T08:40:34.907Z,100543.22
2024-01-22T08:43:02.385Z,100549.13
2024-01-22T08:45:38.186Z,100565.44
2024-01-22T08:48:07.175Z,100569.47
2024-01-22T08:51:22.025Z,100565.88
2024-01-22T08:53:49.075Z,100562.38
2024-01-22T08:56:22.304Z,100565.75
2024-01-22T08:58:49.113Z,100573.50
2024-01-22T09:01:22.452Z,100571.38
2024-01-22T09:03:49.592Z,100561.31
2024-01-22T09:06:23.612Z,100566.41
2024-01-22T09:08:51.323Z,100580.28
2024-01-22T09:11:21.112Z,100583.03
2024-01-22T09:13:48.360Z,100590.44
2024-01-22T09:16:19.111Z,100599.53
2024-01-22T09:18:46.751Z,100596.25
2024-01-22T09:21:14.216Z,100614.69
2024-01-22T09:23:41.265Z,100609.72
2024-01-22T09:26:09.727Z,100618.81
2024-01-22T09:28:37.268Z,100598.28
2024-01-22T09:31:05.002Z,100600.47
2024-01-22T09:33:32.040Z,100634.59
2024-01-22T09:36:00.052Z,100633.78
2024-01-22T09:38:27.709Z,100633.00
2024-01-22T09:40:54.890Z,100644.31
2024-01-22T09:43:21.948Z,100643.13
2024-01-22T09:45:51.055Z,100648.53
2024-01-22T09:48:18.437Z,100651.56
2024-01-22T09:50:53.275Z,100660.16
2024-01-22T09:53:22.726Z,100667.75
2024-01-22T09:55:54.210Z,100673.53
2024-01-22T09:58:28.996Z,100669.69
2024-01-22T10:01:05.014Z,100683.59
2024-01-22T10:03:35.318Z,100692.63
2024-01-22T10:06:04.498Z,100702.00
2024-01-22T10:08:31.471Z,100708.13
2024-01-22T10:11:02.761Z,100699.91
2024-01-22T10:13:29.846Z,100722.84
2024-01-22T10:16:12.064Z,100718.03
2024-01-22T10:18:40.345Z,100728.13
2024-01-22T10:21:23.649Z,100732.94
2024-01-22T10:24:17.584Z,100740.41
2024-01-22T10:26:52.915Z,100735.78
2024-01-22T10:29:24.192Z,100737.47
2024-01-22T10:31:59.377Z,100744.47
2024-01-22T10:34:31.709Z,100730.50
2024-01-22T10:37:10.202Z,100743.53
2024-01-22T10:39:42.598Z,100731.91
2024-01-22T10:42:19.919Z,100736.25
2024-01-22T10:44:48.157Z,100755.50
2024-01-22T10:47:17.415Z,100748.34
2024-01-22T10:49:48.310Z,100751.16
2024-01-22T10:52:19.044Z,100749.19
2024-01-22T10:54:46.390Z,100756.91
2024-01-22T10:57:25.571Z,100749.28
2024-01-22T11:00:00.205Z,100768.34
2024-01-22T11:02:34.054Z,100762.09
2024-01-22T11:05:08.202Z,100777.69
2024-01-22T11:07:40.380Z,100772.22
2024-01-22T11:10:11.709Z,100776.66
2024-01-22T11:12:51.311Z,100773.16
2024-01-22T11:15:18.253Z,100784.88
2024-01-22T11:17:45.475Z,100800.53
2024-01-22T11:20:16.333Z,100795.06
2024-01-22T11:22:44.267Z,100785.84
2024-01-22T11:25:11.726Z,100795.44
2024-01-22T11:27:42.722Z,100796.56
2024-01-22T11:30:22.183Z,100796.75
2024-01-22T11:32:50.381Z,100795.72
2024-01-22T11:35:50.796Z,100798.47
2024-01-22T11:38:42.856Z,100806.28
2024-01-22T11:41:10.852Z,100800.06
2024-01-22T11:43:38.539Z,100806.78
2024-01-22T11:46:29.177Z,100803.09
2024-01-22T11:48:56.472Z,100814.34
2024-01-22T11:51:29.131Z,100812.16
2024-01-22T11:53:57.933Z,100833.50
2024-01-22T11:56:26.041Z,100835.47
2024-01-22T11:59:03.581Z,100833.13
2024-01-22T12:01:31.306Z,100838.88
2024-01-22T12:04:17.570Z,100827.97
2024-01-22T12:06:50.513Z,100840.16
2024-01-22T12:09:17.580Z,100836.00
2024-01-22T12:11:53.050Z,100850.44
2024-01-22T12:14:20.306Z,100840.16
2024-01-22T12:16:47.819Z,100856.28
2024-01-22T12:19:16.135Z,100848.50
2024-01-22T12:21:44.969Z,100847.50
2024-01-22T12:24:15.997Z,100837.78
2024-01-22T12:26:44.063Z,100864.97
2024-01-22T12:29:21.853Z,100823.22
2024-01-22T12:31:49.490Z,100850.81
2024-01-22T12:34:18.646Z,100830.09
2024-01-22T12:36:47.247Z,100853.72
2024-01-22T12:39:20.930Z,100860.06
2024-01-22T12:41:48.271Z,100862.81
2024-01-22T12:44:15.172Z,100875.28
2024-01-22T12:46:42.900Z,100891.25
2024-01-22T12:49:10.251Z,100879.91
2024-01-22T12:51:38.180Z,100876.03
2024-01-22T12:54:08.191Z,100867.34
2024-01-22T12:56:35.619Z,100887.00
2024-01-22T12:59:02.636Z,100893.59
2024-01-22T13:01:31.959Z,100880.88
2024-01-22T13:04:00.777Z,100915.06
2024-01-22T13:06:28.266Z,100901.00
2024-01-22T13:08:55.343Z,100903.72
2024-01-22T13:11:22.796Z,100912.78
2024-01-22T13:13:49.701Z,100900.50
2024-01-22T13:16:19.599Z,100890.88
2024-01-22T13:18:48.578Z,100902.22
2024-01-22T13:21:19.710Z,100892.47
2024-01-22T13:23:49.464Z,100910.72
2024-01-22T13:26:17.615Z,100911.00
2024-01-22T13:28:44.679Z,100909.00
2024-01-22T13:31:13.570Z,100897.38
2024-01-22T13:33:45.181Z,100903.28
2024-01-22T13:36:17.661Z,100918.97
2024-01-22T13:38:44.855Z,100917.25
2024-01-22T13:41:16.439Z,100908.94
2024-01-22T13:43:44.211Z,100922.41
2024-01-22T13:46:14.284Z,100925.75
2024-01-22T13:48:45.714Z,100919.00
2024-01-22T13:51:16.107Z,100921.16
2024-01-22T13:53:45.893Z,100935.31
2024-01-22T13:56:15.023Z,100909.97
2024-01-22T13:58:44.788Z,100925.47
2024-01-22T14:01:12.759Z,100921.69
2024-01-22T14:03:39.977Z,100917.81
2024-01-22T14:06:10.592Z,100933.00
2024-01-22T14:08:37.775Z,100959.88
2024-01-22T14:11:07.733Z,100938.81
2024-01-22T14:13:37.287Z,100929.47
2024-01-22T14:16:04.481Z,100941.47
2024-01-22T14:18:33.766Z,100939.09
2024-01-22T14:21:10.986Z,100935.09
2024-01-22T14:23:38.409Z,100935.19
2024-01-22T14:26:06.784Z,100941.31
2024-01-22T14:28:33.588Z,100949.16
2024-01-22T14:31:02.463Z,100939.44
2024-01-22T14:33:29.653Z,100939.03
2024-01-22T14:35:56.877Z,100954.72
2024-01-22T14:38:29.667Z,100945.16
2024-01-22T14:41:00.968Z,100949.69
2024-01-22T14:43:32.090Z,100959.50
2024-01-22T14:46:00.471Z,100971.78
2024-01-22T14:48:32.592Z,100968.28
2024-01-22T14:51:06.506Z,100967.84
2024-01-22T14:53:33.968Z,100977.66
2024-01-22T14:56:02.819Z,100968.63
2024-01-22T14:58:32.505Z,100979.00
2024-01-22T15:01:02.370Z,100991.53
2024-01-22T15:03:29.589Z,100994.53
2024-01-22T15:05:57.245Z,101001.31
2024-01-22T15:08:25.356Z,100999.63
2024-01-22T15:10:52.382Z,100994.25
2024-01-22T15:13:19.253Z,101004.44
2024-01-22T15:15:46.409Z,101028.19
2024-01-22T15:18:13.774Z,101020.44
2024-01-22T15:20:41.657Z,101044.22
2024-01-22T15:23:08.613Z,101037.56
2024-01-22T15:25:37.293Z,101017.44
2024-01-22T15:28:05.002Z,101039.88
2024-01-22T15:30:32.432Z,101050.34
2024-01-22T15:33:02.131Z,101055.47
2024-01-22T15:35:35.749Z,101057.16
2024-01-22T15:38:04.211Z,101059.19
2024-01-22T15:40:31.863Z,101068.06
2024-01-22T15:43:01.639Z,101066.03
2024-01-22T15:45:29.096Z,101070.44
2024-01-22T15:47:56.327Z,101077.69
2024-01-22T15:50:27.389Z,101071.47
2024-01-22T15:52:57.495Z,101063.78
2024-01-22T15:55:24.754Z,101078.00
2024-01-22T15:57:51.458Z,101091.69
2024-01-22T16:00:19.108Z,101092.03
2024-01-22T16:02:45.851Z,101090.56
2024-01-22T16:05:13.013Z,101101.88
2024-01-22T16:07:41.007Z,101103.69
2024-01-22T16:10:09.054Z,101114.78
2024-01-22T16:12:35.927Z,101102.69
2024-01-22T16:15:03.907Z,101112.53
2024-01-22T16:17:34.659Z,101118.22
2024-01-22T16:20:02.290Z,101108.19
2024-01-22T16:22:29.946Z,101131.78
2024-01-22T16:24:58.972Z,101107.88
2024-01-22T16:27:25.585Z,101121.25
2024-01-22T16:29:54.050Z,101107.97
2024-01-22T16:32:21.128Z,101135.66
2024-01-22T16:34:48.452Z,101140.34
2024-01-22T16:37:19.349Z,101140.34
2024-01-22T16:39:47.945Z,101138.69
2024-01-22T16:42:16.482Z,101139.94
2024-01-22T16:44:44.209Z,101131.19
2024-01-22T16:47:11.050Z,101142.84
2024-01-22T16:49:38.176Z,101159.94
2024-01-22T16:52:07.389Z,101159.94
2024-01-22T16:54:34.600Z,101157.53
2024-01-22T16:57:02.830Z,101146.75
2024-01-22T16:59:31.320Z,101166.28
2024-01-22T17:01:58.463Z,101168.69
2024-01-22T17:04:28.318Z,101155.81
2024-01-22T17:07:09.590Z,101178.31
2024-01-22T17:09:39.444Z,101175.69
2024-01-22T17:12:09.806Z,101173.66
2024-01-22T17:14:37.252Z,101181.50
2024-01-22T17:17:07.519Z,101196.47
2024-01-22T17:19:34.511Z,101188.78
2024-01-22T17:22:02.206Z,101192.00
2024-01-22T17:24:29.347Z,101195.94
2024-01-22T17:26:56.852Z,101201.22
2024-01-22T17:29:23.735Z,101194.06
2024-01-22T17:31:50.739Z,101194.69
2024-01-22T17:34:18.027Z,101196.41
2024-01-22T17:36:44.867Z,101202.41
2024-01-22T17:39:12.453Z,101207.53
2024-01-22T17:41:40.087Z,101207.53
2024-01-22T17:44:08.335Z,101204.22
2024-01-22T17:46:35.741Z,101221.94
2024-01-22T17:49:02.699Z,101220.09
2024-01-22T17:51:29.679Z,101219.09
2024-01-22T17:53:56.560Z,101212.25
2024-01-22T17:56:23.969Z,101243.06
2024-01-22T17:58:50.835Z,101240.34
2024-01-22T18:01:18.694Z,101239.41
2024-01-22T18:03:46.569Z,101240.34
2024-01-22T18:06:20.645Z,101254.03
2024-01-22T18:08:47.965Z,101232.53
2024-01-22T18:11:18.828Z,101222.53
2024-01-22T18:13:46.200Z,101234.31
2024-01-22T18:16:14.125Z,101231.97
2024-01-22T18:18:41.347Z,101245.00
2024-01-22T18:21:09.061Z,101256.13
2024-01-22T18:23:36.746Z,101266.59
2024-01-22T18:26:07.209Z,101262.47
2024-01-22T18:28:35.428Z,101267.53
2024-01-22T18:31:02.953Z,101266.53
2024-01-22T18:33:30.199Z,101284.94
2024-01-22T18:35:59.084Z,101296.19
2024-01-22T18:38:26.662Z,101290.41
2024-01-22T18:40:54.039Z,101300.47
2024-01-22T18:43:21.957Z,101297.56
2024-01-22T18:45:49.060Z,101308.66
2024-01-22T18:48:15.956Z,101318.38
2024-01-22T18:50:42.919Z,101322.66
2024-01-22T18:53:10.063Z,101328.13
2024-01-22T18:55:40.431Z,101340.75
2024-01-22T18:58:07.735Z,101330.22
2024-01-22T19:00:35.722Z,101334.19
2024-01-22T19:03:02.585Z,101345.53
2024-01-22T19:05:29.684Z,101332.28
2024-01-22T19:08:20.999Z,101330.97
2024-01-22T19:11:06.872Z,101340.25
2024-01-22T19:13:33.894Z,101340.19
2024-01-22T19:16:00.914Z,101336.75
2024-01-22T19:18:28.279Z,101356.16
2024-01-22T19:20:55.296Z,101354.16
2024-01-22T19:23:22.301Z,101376.06
2024-01-22T19:25:49.352Z,101369.06
2024-01-22T19:28:15.917Z,101382.19
2024-01-22T19:30:43.856Z,101392.75
2024-01-22T19:33:11.210Z,101366.06
2024-01-22T19:35:38.266Z,101378.00
2024-01-22T19:38:04.915Z,101393.06
2024-01-22T19:40:33.168Z,101379.06
2024-01-22T19:43:00.542Z,101387.84
2024-01-22T19:45:27.406Z,101387.84
2024-01-22T19:47:56.994Z,101385.78
2024-01-22T19:50:23.791Z,101400.69
2024-01-22T19:52:51.451Z,101398.66
2024-01-22T19:55:18.485Z,101386.84
2024-01-22T19:57:45.242Z,101389.81
2024-01-22T20:00:13.580Z,101403.53
2024-01-22T20:02:41.319Z,101408.81
2024-01-22T20:05:08.668Z,101411.31
2024-01-22T20:07:35.624Z,101408.03
2024-01-22T20:10:02.760Z,101414.31
2024-01-22T20:12:31.148Z,101393.53
2024-01-22T20:14:57.633Z,101401.22
2024-01-22T20:17:25.475Z,101399.34
2024-01-22T20:19:52.269Z,101397.81
2024-01-22T20:22:18.960Z,101410.06
2024-01-22T20:24:45.571Z,101409.09
2024-01-22T20:27:12.253Z,101412.06
2024-01-22T20:29:40.616Z,101438.31
2024-01-22T20:32:09.416Z,101436.34
2024-01-22T20:34:36.586Z,101424.41
2024-01-22T20:37:04.837Z,101434.97
2024-01-22T20:39:32.619Z,101445.66
2024-01-22T20:42:00.093Z,101450.41
2024-01-22T20:44:27.167Z,101447.25
2024-01-22T20:46:54.608Z,101451.75
2024-01-22T20:49:22.872Z,101451.16
2024-01-22T20:51:51.145Z,101439.91
2024-01-22T20:54:18.523Z,101456.13
2024-01-22T20:56:47.657Z,101449.28
2024-01-22T20:59:15.093Z,101460.03
2024-01-22T21:01:47.777Z,101448.09
2024-01-22T21:04:15.708Z,101473.19
2024-01-22T21:06:44.038Z,101457.88
2024-01-22T21:09:16.069Z,101454.84
2024-01-22T21:11:45.595Z,101474.00
2024-01-22T21:14:13.772Z,101472.38
2024-01-22T21:16:41.919Z,101487.31
2024-01-22T21:19:09.040Z,101489.28
2024-01-22T21:21:47.561Z,101485.94
2024-01-22T21:24:15.414Z,101472.88
2024-01-22T21:26:47.511Z,101479.81
2024-01-22T21:29:14.954Z,101479.84
2024-01-22T21:31:42.726Z,101479.31
2024-01-22T21:34:11.084Z,101494.03
2024-01-22T21:36:41.593Z,101500.94
2024-01-22T21:39:09.748Z,101502.66
2024-01-22T21:41:37.463Z,101503.50
2024-01-22T21:44:04.621Z,101504.25
2024-01-22T21:46:33.453Z,101506.16
2024-01-22T21:49:01.141Z,101502.47
2024-01-22T21:51:29.340Z,101496.16
2024-01-22T21:53:56.600Z,101503.81
2024-01-22T21:56:24.071Z,101488.59
2024-01-22T21:58:51.146Z,101499.38
2024-01-22T22:01:21.484Z,101493.84
2024-01-22T22:03:48.837Z,101499.13
2024-01-22T22:06:17.045Z,101513.22
2024-01-22T22:08:45.715Z,101527.41
2024-01-22T22:11:13.600Z,101525.75
2024-01-22T22:13:40.613Z,101541.38
2024-01-22T22:16:10.195Z,101548.47
2024-01-22T22:18:37.635Z,101557.31
2024-01-22T22:21:06.900Z,101545.78
2024-01-22T22:23:37.412Z,101548.34
2024-01-22T22:26:05.342Z,101563.38
2024-01-22T22:28:32.101Z,101552.66
2024-01-22T22:31:00.383Z,101576.44
2024-01-22T22:33:27.899Z,101562.25
2024-01-22T22:35:54.949Z,101565.81
2024-01-22T22:38:25.218Z,101571.75
2024-01-22T22:40:52.360Z,101577.28
2024-01-22T22:43:22.136Z,101583.91
2024-01-22T22:45:49.870Z,101601.88
2024-01-22T22:48:16.891Z,101596.47
2024-01-22T22:50:44.146Z,101594.91
2024-01-22T22:53:11.172Z,101598.31
2024-01-22T22:55:38.629Z,101631.03
2024-01-22T22:58:05.488Z,101621.34
2024-01-22T23:00:32.849Z,101617.16
2024-01-22T23:02:59.837Z,101621.97
2024-01-22T23:05:26.834Z,101630.53
2024-01-22T23:07:53.772Z,101633.16
2024-01-22T23:10:22.154Z,101626.97
2024-01-22T23:12:48.799Z,101643.72
2024-01-22T23:15:16.088Z,101635.56
2024-01-22T23:17:44.766Z,101661.38
2024-01-22T23:20:14.569Z,101653.34
2024-01-22T23:22:41.796Z,101645.91
2024-01-22T23:25:09.093Z,101657.41
2024-01-22T23:27:36.508Z,101669.75
2024-01-22T23:30:06.033Z,101670.59
2024-01-22T23:32:37.648Z,101680.09
2024-01-22T23:35:04.995Z,101679.47
2024-01-22T23:37:32.201Z,101673.72
2024-01-22T23:40:00.543Z,101693.94
2024-01-22T23:42:27.436Z,101687.00
2024-01-22T23:44:54.916Z,101695.09
2024-01-22T23:47:26.166Z,101704.53
2024-01-22T23:49:53.043Z,101712.50
2024-01-22T23:52:19.810Z,101721.50
2024-01-22T23:54:46.687Z,101720.63
2024-01-22T23:57:14.428Z,101724.31
2024-01-22T23:59:44.743Z,101714.91
